sensor_id;sensor_type;location;lat;lon;timestamp;P1;durP1;ratioP1;P2;durP2;ratioP2
54271;SDS011;40184;53.362;5.216;2023-12-22T00:02:16;31.67;;;6.57;;
54271;SDS011;40184;53.362;5.216;2023-12-22T00:04:42;48.72;;;10.35;;
54271;SDS011;40184;53.362;5.216;2023-12-22T00:07:08;32.30;;;7.90;;
54271;SDS011;40184;53.362;5.216;2023-12-22T00:09:34;47.22;;;9.02;;
54271;SDS011;40184;53.362;5.216;2023-12-22T00:12:00;47.92;;;10.45;;
54271;SDS011;40184;53.362;5.216;2023-12-22T00:14:27;50.53;;;9.50;;
54271;SDS011;40184;53.362;5.216;2023-12-22T00:16:53;46.05;;;10.73;;
54271;SDS011;40184;53.362;5.216;2023-12-22T00:19:19;42.78;;;10.73;;
54271;SDS011;40184;53.362;5.216;2023-12-22T00:21:45;47.80;;;9.25;;
54271;SDS011;40184;53.362;5.216;2023-12-22T00:24:11;51.83;;;11.13;;
54271;SDS011;40184;53.362;5.216;2023-12-22T00:26:37;43.47;;;9.55;;
54271;SDS011;40184;53.362;5.216;2023-12-22T00:29:03;42.53;;;8.02;;
54271;SDS011;40184;53.362;5.216;2023-12-22T00:31:29;34.58;;;7.40;;
54271;SDS011;40184;53.362;5.216;2023-12-22T00:33:55;33.63;;;8.32;;
54271;SDS011;40184;53.362;5.216;2023-12-22T00:36:21;52.40;;;10.18;;
54271;SDS011;40184;53.362;5.216;2023-12-22T00:38:49;36.63;;;8.77;;
54271;SDS011;40184;53.362;5.216;2023-12-22T00:41:15;36.50;;;10.90;;
54271;SDS011;40184;53.362;5.216;2023-12-22T00:43:42;43.50;;;9.70;;
54271;SDS011;40184;53.362;5.216;2023-12-22T00:46:08;44.60;;;10.18;;
54271;SDS011;40184;53.362;5.216;2023-12-22T00:48:34;46.58;;;9.60;;
54271;SDS011;40184;53.362;5.216;2023-12-22T00:51:00;38.78;;;9.88;;
54271;SDS011;40184;53.362;5.216;2023-12-22T00:53:26;44.50;;;10.60;;
54271;SDS011;40184;53.362;5.216;2023-12-22T00:55:52;36.88;;;7.18;;
54271;SDS011;40184;53.362;5.216;2023-12-22T00:58:18;25.20;;;5.63;;
54271;SDS011;40184;53.362;5.216;2023-12-22T01:00:44;37.90;;;8.13;;
54271;SDS011;40184;53.362;5.216;2023-12-22T01:03:10;36.63;;;8.68;;
54271;SDS011;40184;53.362;5.216;2023-12-22T01:05:37;33.47;;;7.10;;
54271;SDS011;40184;53.362;5.216;2023-12-22T01:08:03;37.40;;;8.15;;
54271;SDS011;40184;53.362;5.216;2023-12-22T01:10:29;40.30;;;7.75;;
54271;SDS011;40184;53.362;5.216;2023-12-22T01:12:55;37.90;;;9.10;;
54271;SDS011;40184;53.362;5.216;2023-12-22T01:15:21;40.40;;;8.63;;
54271;SDS011;40184;53.362;5.216;2023-12-22T01:17:47;31.52;;;7.18;;
54271;SDS011;40184;53.362;5.216;2023-12-22T01:20:15;26.33;;;6.28;;
54271;SDS011;40184;53.362;5.216;2023-12-22T01:22:41;38.05;;;7.57;;
54271;SDS011;40184;53.362;5.216;2023-12-22T01:25:07;37.00;;;7.65;;
54271;SDS011;40184;53.362;5.216;2023-12-22T01:27:33;43.60;;;10.27;;
54271;SDS011;40184;53.362;5.216;2023-12-22T01:29:59;51.22;;;11.13;;
54271;SDS011;40184;53.362;5.216;2023-12-22T01:32:25;24.00;;;5.70;;
54271;SDS011;40184;53.362;5.216;2023-12-22T01:34:57;18.70;;;3.60;;
54271;SDS011;40184;53.362;5.216;2023-12-22T01:37:28;20.73;;;5.60;;
54271;SDS011;40184;53.362;5.216;2023-12-22T01:39:54;41.88;;;7.25;;
54271;SDS011;40184;53.362;5.216;2023-12-22T01:42:20;34.45;;;7.03;;
54271;SDS011;40184;53.362;5.216;2023-12-22T01:44:46;25.17;;;5.55;;
54271;SDS011;40184;53.362;5.216;2023-12-22T01:47:13;47.30;;;10.13;;
54271;SDS011;40184;53.362;5.216;2023-12-22T01:49:39;30.17;;;7.47;;
54271;SDS011;40184;53.362;5.216;2023-12-22T01:52:05;31.67;;;5.53;;
54271;SDS011;40184;53.362;5.216;2023-12-22T01:54:31;32.20;;;6.47;;
54271;SDS011;40184;53.362;5.216;2023-12-22T01:56:57;24.83;;;5.22;;
54271;SDS011;40184;53.362;5.216;2023-12-22T01:59:23;33.20;;;6.35;;
54271;SDS011;40184;53.362;5.216;2023-12-22T02:01:49;26.95;;;6.00;;
54271;SDS011;40184;53.362;5.216;2023-12-22T02:04:16;38.33;;;6.85;;
54271;SDS011;40184;53.362;5.216;2023-12-22T02:06:42;42.33;;;7.45;;
54271;SDS011;40184;53.362;5.216;2023-12-22T02:09:08;38.00;;;7.25;;
54271;SDS011;40184;53.362;5.216;2023-12-22T02:11:34;30.30;;;6.05;;
54271;SDS011;40184;53.362;5.216;2023-12-22T02:14:00;43.33;;;8.48;;
54271;SDS011;40184;53.362;5.216;2023-12-22T02:16:31;42.28;;;8.23;;
54271;SDS011;40184;53.362;5.216;2023-12-22T02:18:59;31.63;;;8.30;;
54271;SDS011;40184;53.362;5.216;2023-12-22T02:21:28;36.40;;;7.20;;
54271;SDS011;40184;53.362;5.216;2023-12-22T02:23:54;26.73;;;7.30;;
54271;SDS011;40184;53.362;5.216;2023-12-22T02:26:34;29.05;;;6.53;;
54271;SDS011;40184;53.362;5.216;2023-12-22T02:29:02;34.53;;;7.70;;
54271;SDS011;40184;53.362;5.216;2023-12-22T02:31:39;26.35;;;5.75;;
54271;SDS011;40184;53.362;5.216;2023-12-22T02:34:11;32.35;;;5.78;;
54271;SDS011;40184;53.362;5.216;2023-12-22T02:36:38;31.42;;;6.43;;
54271;SDS011;40184;53.362;5.216;2023-12-22T02:39:05;38.28;;;7.47;;
54271;SDS011;40184;53.362;5.216;2023-12-22T02:41:32;35.53;;;7.78;;
54271;SDS011;40184;53.362;5.216;2023-12-22T02:43:58;25.33;;;5.50;;
54271;SDS011;40184;53.362;5.216;2023-12-22T02:46:25;33.42;;;8.15;;
54271;SDS011;40184;53.362;5.216;2023-12-22T02:48:51;41.65;;;7.97;;
54271;SDS011;40184;53.362;5.216;2023-12-22T02:51:17;28.48;;;6.07;;
54271;SDS011;40184;53.362;5.216;2023-12-22T02:53:43;24.50;;;6.07;;
54271;SDS011;40184;53.362;5.216;2023-12-22T02:56:09;36.95;;;7.88;;
54271;SDS011;40184;53.362;5.216;2023-12-22T02:58:35;43.80;;;8.20;;
54271;SDS011;40184;53.362;5.216;2023-12-22T03:01:01;33.30;;;9.27;;
54271;SDS011;40184;53.362;5.216;2023-12-22T03:03:27;38.67;;;8.88;;
54271;SDS011;40184;53.362;5.216;2023-12-22T03:05:53;39.80;;;9.45;;
54271;SDS011;40184;53.362;5.216;2023-12-22T03:08:19;32.83;;;7.95;;
54271;SDS011;40184;53.362;5.216;2023-12-22T03:10:45;39.03;;;7.75;;
54271;SDS011;40184;53.362;5.216;2023-12-22T03:13:11;41.22;;;7.45;;
54271;SDS011;40184;53.362;5.216;2023-12-22T03:15:37;33.67;;;6.88;;
54271;SDS011;40184;53.362;5.216;2023-12-22T03:18:03;30.95;;;6.95;;
54271;SDS011;40184;53.362;5.216;2023-12-22T03:20:29;27.50;;;6.22;;
54271;SDS011;40184;53.362;5.216;2023-12-22T03:22:56;37.20;;;9.68;;
54271;SDS011;40184;53.362;5.216;2023-12-22T03:25:22;41.72;;;8.85;;
54271;SDS011;40184;53.362;5.216;2023-12-22T03:27:49;43.03;;;8.55;;
54271;SDS011;40184;53.362;5.216;2023-12-22T03:30:15;37.55;;;7.82;;
54271;SDS011;40184;53.362;5.216;2023-12-22T03:32:41;36.70;;;8.65;;
54271;SDS011;40184;53.362;5.216;2023-12-22T03:35:07;33.55;;;6.88;;
54271;SDS011;40184;53.362;5.216;2023-12-22T03:37:34;44.58;;;9.02;;
54271;SDS011;40184;53.362;5.216;2023-12-22T03:40:00;50.63;;;10.68;;
54271;SDS011;40184;53.362;5.216;2023-12-22T03:42:26;43.67;;;8.73;;
54271;SDS011;40184;53.362;5.216;2023-12-22T03:44:52;35.08;;;7.68;;
54271;SDS011;40184;53.362;5.216;2023-12-22T03:47:18;37.10;;;8.18;;
54271;SDS011;40184;53.362;5.216;2023-12-22T03:49:44;49.65;;;9.05;;
54271;SDS011;40184;53.362;5.216;2023-12-22T03:52:10;42.15;;;11.05;;
54271;SDS011;40184;53.362;5.216;2023-12-22T03:54:36;38.33;;;7.30;;
54271;SDS011;40184;53.362;5.216;2023-12-22T03:57:02;25.75;;;6.43;;
54271;SDS011;40184;53.362;5.216;2023-12-22T03:59:28;39.22;;;8.70;;
54271;SDS011;40184;53.362;5.216;2023-12-22T04:01:54;26.75;;;6.35;;
54271;SDS011;40184;53.362;5.216;2023-12-22T04:04:22;44.72;;;8.98;;
54271;SDS011;40184;53.362;5.216;2023-12-22T04:06:48;32.90;;;5.78;;
54271;SDS011;40184;53.362;5.216;2023-12-22T04:09:14;34.50;;;7.35;;
54271;SDS011;40184;53.362;5.216;2023-12-22T04:11:40;38.47;;;6.55;;
54271;SDS011;40184;53.362;5.216;2023-12-22T04:14:07;32.60;;;7.35;;
54271;SDS011;40184;53.362;5.216;2023-12-22T04:16:33;26.20;;;6.30;;
54271;SDS011;40184;53.362;5.216;2023-12-22T04:19:02;36.60;;;6.90;;
54271;SDS011;40184;53.362;5.216;2023-12-22T04:21:28;33.35;;;6.18;;
54271;SDS011;40184;53.362;5.216;2023-12-22T04:23:54;43.05;;;9.05;;
54271;SDS011;40184;53.362;5.216;2023-12-22T04:26:20;54.88;;;10.57;;
54271;SDS011;40184;53.362;5.216;2023-12-22T04:28:46;40.10;;;9.02;;
54271;SDS011;40184;53.362;5.216;2023-12-22T04:31:12;32.35;;;7.47;;
54271;SDS011;40184;53.362;5.216;2023-12-22T04:33:38;35.50;;;8.45;;
54271;SDS011;40184;53.362;5.216;2023-12-22T04:36:04;39.55;;;8.48;;
54271;SDS011;40184;53.362;5.216;2023-12-22T04:38:30;29.15;;;6.60;;
54271;SDS011;40184;53.362;5.216;2023-12-22T04:40:56;31.17;;;6.97;;
54271;SDS011;40184;53.362;5.216;2023-12-22T04:43:22;36.05;;;8.02;;
54271;SDS011;40184;53.362;5.216;2023-12-22T04:45:48;39.67;;;8.55;;
54271;SDS011;40184;53.362;5.216;2023-12-22T04:48:14;34.83;;;7.38;;
54271;SDS011;40184;53.362;5.216;2023-12-22T04:50:40;32.47;;;8.13;;
54271;SDS011;40184;53.362;5.216;2023-12-22T04:53:07;36.75;;;6.05;;
54271;SDS011;40184;53.362;5.216;2023-12-22T04:55:33;28.83;;;7.13;;
54271;SDS011;40184;53.362;5.216;2023-12-22T04:57:59;35.90;;;6.68;;
54271;SDS011;40184;53.362;5.216;2023-12-22T05:00:25;24.08;;;5.45;;
54271;SDS011;40184;53.362;5.216;2023-12-22T05:02:51;34.95;;;7.43;;
54271;SDS011;40184;53.362;5.216;2023-12-22T05:05:17;33.15;;;6.68;;
54271;SDS011;40184;53.362;5.216;2023-12-22T05:07:43;28.23;;;5.38;;
54271;SDS011;40184;53.362;5.216;2023-12-22T05:10:09;38.83;;;8.35;;
54271;SDS011;40184;53.362;5.216;2023-12-22T05:12:35;35.50;;;7.43;;
54271;SDS011;40184;53.362;5.216;2023-12-22T05:15:02;34.92;;;7.00;;
54271;SDS011;40184;53.362;5.216;2023-12-22T05:17:28;29.95;;;5.93;;
54271;SDS011;40184;53.362;5.216;2023-12-22T05:19:54;34.40;;;6.28;;
54271;SDS011;40184;53.362;5.216;2023-12-22T05:22:20;31.45;;;6.65;;
54271;SDS011;40184;53.362;5.216;2023-12-22T05:24:46;27.33;;;5.90;;
54271;SDS011;40184;53.362;5.216;2023-12-22T05:27:12;24.48;;;5.47;;
54271;SDS011;40184;53.362;5.216;2023-12-22T05:29:39;38.33;;;8.13;;
54271;SDS011;40184;53.362;5.216;2023-12-22T05:32:05;32.70;;;6.25;;
54271;SDS011;40184;53.362;5.216;2023-12-22T05:34:31;30.70;;;6.72;;
54271;SDS011;40184;53.362;5.216;2023-12-22T05:36:58;18.95;;;4.72;;
54271;SDS011;40184;53.362;5.216;2023-12-22T05:39:24;27.02;;;5.05;;
54271;SDS011;40184;53.362;5.216;2023-12-22T05:41:50;29.20;;;4.97;;
54271;SDS011;40184;53.362;5.216;2023-12-22T05:44:16;25.88;;;4.90;;
54271;SDS011;40184;53.362;5.216;2023-12-22T05:46:42;27.83;;;6.38;;
54271;SDS011;40184;53.362;5.216;2023-12-22T05:49:08;37.00;;;5.30;;
54271;SDS011;40184;53.362;5.216;2023-12-22T05:51:40;36.30;;;6.47;;
54271;SDS011;40184;53.362;5.216;2023-12-22T05:54:09;26.27;;;5.97;;
54271;SDS011;40184;53.362;5.216;2023-12-22T05:56:36;34.10;;;6.13;;
54271;SDS011;40184;53.362;5.216;2023-12-22T05:59:02;21.83;;;4.82;;
54271;SDS011;40184;53.362;5.216;2023-12-22T06:01:28;30.60;;;5.85;;
54271;SDS011;40184;53.362;5.216;2023-12-22T06:03:55;31.40;;;7.97;;
54271;SDS011;40184;53.362;5.216;2023-12-22T06:06:21;43.47;;;9.82;;
54271;SDS011;40184;53.362;5.216;2023-12-22T06:08:48;31.92;;;7.22;;
54271;SDS011;40184;53.362;5.216;2023-12-22T06:11:14;27.50;;;6.30;;
54271;SDS011;40184;53.362;5.216;2023-12-22T06:13:40;28.30;;;7.70;;
54271;SDS011;40184;53.362;5.216;2023-12-22T06:16:06;29.98;;;6.57;;
54271;SDS011;40184;53.362;5.216;2023-12-22T06:18:35;30.70;;;6.43;;
54271;SDS011;40184;53.362;5.216;2023-12-22T06:21:01;39.85;;;8.73;;
54271;SDS011;40184;53.362;5.216;2023-12-22T06:23:28;33.20;;;6.43;;
54271;SDS011;40184;53.362;5.216;2023-12-22T06:25:55;40.60;;;7.35;;
54271;SDS011;40184;53.362;5.216;2023-12-22T06:28:21;30.02;;;5.45;;
54271;SDS011;40184;53.362;5.216;2023-12-22T06:30:47;41.30;;;8.77;;
54271;SDS011;40184;53.362;5.216;2023-12-22T06:33:13;51.13;;;8.60;;
54271;SDS011;40184;53.362;5.216;2023-12-22T06:35:39;39.47;;;9.05;;
54271;SDS011;40184;53.362;5.216;2023-12-22T06:38:10;43.03;;;9.82;;
54271;SDS011;40184;53.362;5.216;2023-12-22T06:40:36;28.95;;;6.35;;
54271;SDS011;40184;53.362;5.216;2023-12-22T06:43:03;51.88;;;10.30;;
54271;SDS011;40184;53.362;5.216;2023-12-22T06:45:29;51.47;;;9.38;;
54271;SDS011;40184;53.362;5.216;2023-12-22T06:47:56;43.03;;;8.52;;
54271;SDS011;40184;53.362;5.216;2023-12-22T06:50:22;46.28;;;10.80;;
54271;SDS011;40184;53.362;5.216;2023-12-22T06:52:48;43.10;;;7.47;;
54271;SDS011;40184;53.362;5.216;2023-12-22T06:55:15;27.80;;;5.80;;
54271;SDS011;40184;53.362;5.216;2023-12-22T06:57:41;40.28;;;7.18;;
54271;SDS011;40184;53.362;5.216;2023-12-22T07:00:08;30.27;;;6.82;;
54271;SDS011;40184;53.362;5.216;2023-12-22T07:02:35;40.20;;;6.93;;
54271;SDS011;40184;53.362;5.216;2023-12-22T07:07:31;29.85;;;7.97;;
54271;SDS011;40184;53.362;5.216;2023-12-22T07:09:57;16.73;;;4.30;;
54271;SDS011;40184;53.362;5.216;2023-12-22T07:12:23;24.17;;;4.70;;
54271;SDS011;40184;53.362;5.216;2023-12-22T07:14:49;22.23;;;4.47;;
54271;SDS011;40184;53.362;5.216;2023-12-22T07:17:15;25.15;;;5.50;;
54271;SDS011;40184;53.362;5.216;2023-12-22T07:19:41;25.30;;;6.78;;
54271;SDS011;40184;53.362;5.216;2023-12-22T07:22:08;34.38;;;6.80;;
54271;SDS011;40184;53.362;5.216;2023-12-22T07:24:34;28.73;;;6.30;;
54271;SDS011;40184;53.362;5.216;2023-12-22T07:27:00;18.90;;;7.07;;
54271;SDS011;40184;53.362;5.216;2023-12-22T07:29:26;31.83;;;5.90;;
54271;SDS011;40184;53.362;5.216;2023-12-22T07:31:52;23.27;;;4.20;;
54271;SDS011;40184;53.362;5.216;2023-12-22T07:34:18;21.48;;;4.55;;
54271;SDS011;40184;53.362;5.216;2023-12-22T07:36:46;29.38;;;6.05;;
54271;SDS011;40184;53.362;5.216;2023-12-22T07:39:12;26.08;;;4.80;;
54271;SDS011;40184;53.362;5.216;2023-12-22T07:41:39;22.17;;;3.58;;
54271;SDS011;40184;53.362;5.216;2023-12-22T07:44:05;24.98;;;5.75;;
54271;SDS011;40184;53.362;5.216;2023-12-22T07:46:31;27.00;;;4.35;;
54271;SDS011;40184;53.362;5.216;2023-12-22T07:48:57;25.42;;;6.15;;
54271;SDS011;40184;53.362;5.216;2023-12-22T07:51:24;15.70;;;4.00;;
54271;SDS011;40184;53.362;5.216;2023-12-22T07:53:50;25.73;;;6.03;;
54271;SDS011;40184;53.362;5.216;2023-12-22T07:56:16;24.92;;;4.68;;
54271;SDS011;40184;53.362;5.216;2023-12-22T07:58:42;23.48;;;4.10;;
54271;SDS011;40184;53.362;5.216;2023-12-22T08:01:08;17.80;;;3.53;;
54271;SDS011;40184;53.362;5.216;2023-12-22T08:03:34;30.40;;;5.00;;
54271;SDS011;40184;53.362;5.216;2023-12-22T08:06:02;21.15;;;4.40;;
54271;SDS011;40184;53.362;5.216;2023-12-22T08:08:28;29.17;;;5.57;;
54271;SDS011;40184;53.362;5.216;2023-12-22T08:10:55;21.90;;;4.45;;
54271;SDS011;40184;53.362;5.216;2023-12-22T08:13:21;25.55;;;4.43;;
54271;SDS011;40184;53.362;5.216;2023-12-22T08:15:47;24.90;;;5.07;;
54271;SDS011;40184;53.362;5.216;2023-12-22T08:18:13;36.53;;;5.75;;
54271;SDS011;40184;53.362;5.216;2023-12-22T08:20:39;25.08;;;5.20;;
54271;SDS011;40184;53.362;5.216;2023-12-22T08:23:05;17.60;;;4.05;;
54271;SDS011;40184;53.362;5.216;2023-12-22T08:25:31;37.17;;;6.15;;
54271;SDS011;40184;53.362;5.216;2023-12-22T08:27:57;17.52;;;4.22;;
54271;SDS011;40184;53.362;5.216;2023-12-22T08:30:23;22.90;;;4.63;;
54271;SDS011;40184;53.362;5.216;2023-12-22T08:32:50;32.97;;;6.53;;
54271;SDS011;40184;53.362;5.216;2023-12-22T08:35:16;25.67;;;5.25;;
54271;SDS011;40184;53.362;5.216;2023-12-22T08:37:42;27.92;;;5.07;;
54271;SDS011;40184;53.362;5.216;2023-12-22T08:40:08;33.42;;;7.03;;
54271;SDS011;40184;53.362;5.216;2023-12-22T08:42:34;28.00;;;4.82;;
54271;SDS011;40184;53.362;5.216;2023-12-22T08:45:00;22.15;;;4.82;;
54271;SDS011;40184;53.362;5.216;2023-12-22T08:47:27;19.08;;;4.93;;
54271;SDS011;40184;53.362;5.216;2023-12-22T08:49:53;21.60;;;5.72;;
54271;SDS011;40184;53.362;5.216;2023-12-22T08:52:19;27.80;;;4.47;;
54271;SDS011;40184;53.362;5.216;2023-12-22T08:54:45;32.78;;;5.60;;
54271;SDS011;40184;53.362;5.216;2023-12-22T08:57:11;20.67;;;4.30;;
54271;SDS011;40184;53.362;5.216;2023-12-22T08:59:37;19.83;;;4.03;;
54271;SDS011;40184;53.362;5.216;2023-12-22T09:02:04;32.10;;;6.28;;
54271;SDS011;40184;53.362;5.216;2023-12-22T09:04:31;22.30;;;4.72;;
54271;SDS011;40184;53.362;5.216;2023-12-22T09:06:57;29.08;;;6.78;;
54271;SDS011;40184;53.362;5.216;2023-12-22T09:09:23;27.55;;;5.10;;
54271;SDS011;40184;53.362;5.216;2023-12-22T09:11:50;36.53;;;7.15;;
54271;SDS011;40184;53.362;5.216;2023-12-22T09:14:16;36.33;;;6.30;;
54271;SDS011;40184;53.362;5.216;2023-12-22T09:16:42;43.85;;;8.35;;
54271;SDS011;40184;53.362;5.216;2023-12-22T09:19:10;33.08;;;5.32;;
54271;SDS011;40184;53.362;5.216;2023-12-22T09:21:36;28.58;;;6.05;;
54271;SDS011;40184;53.362;5.216;2023-12-22T09:24:02;15.20;;;4.20;;
54271;SDS011;40184;53.362;5.216;2023-12-22T09:26:29;19.35;;;3.40;;
54271;SDS011;40184;53.362;5.216;2023-12-22T09:28:55;38.03;;;5.15;;
54271;SDS011;40184;53.362;5.216;2023-12-22T09:31:21;32.83;;;5.57;;
54271;SDS011;40184;53.362;5.216;2023-12-22T09:33:47;22.67;;;3.95;;
54271;SDS011;40184;53.362;5.216;2023-12-22T09:36:13;28.80;;;5.95;;
54271;SDS011;40184;53.362;5.216;2023-12-22T09:38:40;23.02;;;4.75;;
54271;SDS011;40184;53.362;5.216;2023-12-22T09:41:07;31.60;;;4.57;;
54271;SDS011;40184;53.362;5.216;2023-12-22T09:43:34;30.02;;;5.88;;
54271;SDS011;40184;53.362;5.216;2023-12-22T09:46:04;28.27;;;5.75;;
54271;SDS011;40184;53.362;5.216;2023-12-22T09:48:30;22.33;;;4.82;;
54271;SDS011;40184;53.362;5.216;2023-12-22T09:50:57;20.88;;;4.50;;
54271;SDS011;40184;53.362;5.216;2023-12-22T09:53:25;22.52;;;3.63;;
54271;SDS011;40184;53.362;5.216;2023-12-22T09:55:52;17.70;;;3.90;;
54271;SDS011;40184;53.362;5.216;2023-12-22T09:58:19;23.83;;;4.95;;
54271;SDS011;40184;53.362;5.216;2023-12-22T10:00:45;28.95;;;5.90;;
54271;SDS011;40184;53.362;5.216;2023-12-22T10:03:11;26.40;;;5.15;;
54271;SDS011;40184;53.362;5.216;2023-12-22T10:05:39;23.70;;;5.00;;
54271;SDS011;40184;53.362;5.216;2023-12-22T10:08:05;25.33;;;5.45;;
54271;SDS011;40184;53.362;5.216;2023-12-22T10:10:32;36.38;;;5.63;;
54271;SDS011;40184;53.362;5.216;2023-12-22T10:12:58;31.23;;;6.25;;
54271;SDS011;40184;53.362;5.216;2023-12-22T10:15:24;29.80;;;5.35;;
54271;SDS011;40184;53.362;5.216;2023-12-22T10:17:52;22.98;;;4.53;;
54271;SDS011;40184;53.362;5.216;2023-12-22T10:20:18;17.85;;;3.70;;
54271;SDS011;40184;53.362;5.216;2023-12-22T10:22:44;21.83;;;4.60;;
54271;SDS011;40184;53.362;5.216;2023-12-22T10:25:11;25.60;;;5.03;;
54271;SDS011;40184;53.362;5.216;2023-12-22T10:27:41;24.50;;;3.60;;
54271;SDS011;40184;53.362;5.216;2023-12-22T10:30:08;34.92;;;5.63;;
54271;SDS011;40184;53.362;5.216;2023-12-22T10:32:39;26.40;;;4.68;;
54271;SDS011;40184;53.362;5.216;2023-12-22T10:35:07;21.95;;;3.95;;
54271;SDS011;40184;53.362;5.216;2023-12-22T10:37:33;20.35;;;3.28;;
54271;SDS011;40184;53.362;5.216;2023-12-22T10:39:59;31.48;;;6.20;;
54271;SDS011;40184;53.362;5.216;2023-12-22T10:42:25;19.60;;;5.13;;
54271;SDS011;40184;53.362;5.216;2023-12-22T10:44:51;20.05;;;3.92;;
54271;SDS011;40184;53.362;5.216;2023-12-22T10:47:18;21.95;;;4.25;;
54271;SDS011;40184;53.362;5.216;2023-12-22T10:49:46;21.55;;;4.55;;
54271;SDS011;40184;53.362;5.216;2023-12-22T10:52:16;24.02;;;4.72;;
54271;SDS011;40184;53.362;5.216;2023-12-22T10:54:43;27.67;;;5.25;;
54271;SDS011;40184;53.362;5.216;2023-12-22T10:57:09;27.23;;;3.47;;
54271;SDS011;40184;53.362;5.216;2023-12-22T10:59:35;32.83;;;5.40;;
54271;SDS011;40184;53.362;5.216;2023-12-22T11:02:04;24.40;;;5.00;;
54271;SDS011;40184;53.362;5.216;2023-12-22T11:04:32;25.20;;;5.95;;
54271;SDS011;40184;53.362;5.216;2023-12-22T11:07:02;32.38;;;5.38;;
54271;SDS011;40184;53.362;5.216;2023-12-22T11:09:31;21.63;;;4.38;;
54271;SDS011;40184;53.362;5.216;2023-12-22T11:11:58;20.48;;;4.10;;
54271;SDS011;40184;53.362;5.216;2023-12-22T11:14:25;22.35;;;4.75;;
54271;SDS011;40184;53.362;5.216;2023-12-22T11:16:52;24.40;;;5.35;;
54271;SDS011;40184;53.362;5.216;2023-12-22T11:19:19;33.05;;;5.57;;
54271;SDS011;40184;53.362;5.216;2023-12-22T11:21:47;28.88;;;5.45;;
54271;SDS011;40184;53.362;5.216;2023-12-22T11:24:13;29.80;;;5.63;;
54271;SDS011;40184;53.362;5.216;2023-12-22T11:26:41;18.52;;;4.32;;
54271;SDS011;40184;53.362;5.216;2023-12-22T11:29:10;15.13;;;3.85;;
54271;SDS011;40184;53.362;5.216;2023-12-22T11:31:37;23.40;;;4.45;;
54271;SDS011;40184;53.362;5.216;2023-12-22T11:34:03;19.50;;;4.28;;
54271;SDS011;40184;53.362;5.216;2023-12-22T11:36:31;17.92;;;3.72;;
54271;SDS011;40184;53.362;5.216;2023-12-22T11:38:57;23.77;;;5.22;;
54271;SDS011;40184;53.362;5.216;2023-12-22T11:41:27;27.75;;;4.50;;
54271;SDS011;40184;53.362;5.216;2023-12-22T11:43:55;21.17;;;4.53;;
54271;SDS011;40184;53.362;5.216;2023-12-22T11:46:22;26.58;;;6.60;;
54271;SDS011;40184;53.362;5.216;2023-12-22T11:48:52;20.75;;;4.82;;
54271;SDS011;40184;53.362;5.216;2023-12-22T11:51:20;27.15;;;4.63;;
54271;SDS011;40184;53.362;5.216;2023-12-22T11:53:47;28.73;;;6.28;;
54271;SDS011;40184;53.362;5.216;2023-12-22T11:56:13;21.02;;;5.47;;
54271;SDS011;40184;53.362;5.216;2023-12-22T11:58:43;27.35;;;5.47;;
54271;SDS011;40184;53.362;5.216;2023-12-22T12:01:16;23.63;;;5.43;;
54271;SDS011;40184;53.362;5.216;2023-12-22T12:06:17;31.77;;;5.93;;
54271;SDS011;40184;53.362;5.216;2023-12-22T12:08:47;18.13;;;3.60;;
54271;SDS011;40184;53.362;5.216;2023-12-22T12:11:16;21.38;;;3.28;;
54271;SDS011;40184;53.362;5.216;2023-12-22T12:13:46;22.35;;;4.28;;
54271;SDS011;40184;53.362;5.216;2023-12-22T12:16:12;14.60;;;3.58;;
54271;SDS011;40184;53.362;5.216;2023-12-22T12:18:39;15.00;;;3.15;;
54271;SDS011;40184;53.362;5.216;2023-12-22T12:21:06;21.00;;;3.25;;
54271;SDS011;40184;53.362;5.216;2023-12-22T12:23:33;17.75;;;3.03;;
54271;SDS011;40184;53.362;5.216;2023-12-22T12:26:00;16.52;;;3.97;;
54271;SDS011;40184;53.362;5.216;2023-12-22T12:28:26;28.05;;;5.35;;
54271;SDS011;40184;53.362;5.216;2023-12-22T12:31:02;11.73;;;2.63;;
54271;SDS011;40184;53.362;5.216;2023-12-22T12:33:28;27.45;;;4.57;;
54271;SDS011;40184;53.362;5.216;2023-12-22T12:36:01;22.58;;;6.68;;
54271;SDS011;40184;53.362;5.216;2023-12-22T12:41:00;20.40;;;3.45;;
54271;SDS011;40184;53.362;5.216;2023-12-22T12:43:29;24.52;;;4.93;;
54271;SDS011;40184;53.362;5.216;2023-12-22T12:45:55;35.75;;;5.40;;
54271;SDS011;40184;53.362;5.216;2023-12-22T12:48:28;24.63;;;4.50;;
54271;SDS011;40184;53.362;5.216;2023-12-22T12:50:54;17.67;;;3.80;;
54271;SDS011;40184;53.362;5.216;2023-12-22T12:53:20;23.98;;;3.83;;
54271;SDS011;40184;53.362;5.216;2023-12-22T12:55:46;25.65;;;4.32;;
54271;SDS011;40184;53.362;5.216;2023-12-22T12:58:12;34.05;;;4.63;;
54271;SDS011;40184;53.362;5.216;2023-12-22T13:00:38;26.63;;;4.25;;
54271;SDS011;40184;53.362;5.216;2023-12-22T13:03:05;23.58;;;4.63;;
54271;SDS011;40184;53.362;5.216;2023-12-22T13:05:31;15.30;;;3.88;;
54271;SDS011;40184;53.362;5.216;2023-12-22T13:08:07;21.75;;;3.58;;
54271;SDS011;40184;53.362;5.216;2023-12-22T13:10:36;24.13;;;4.18;;
54271;SDS011;40184;53.362;5.216;2023-12-22T13:13:02;16.88;;;2.75;;
54271;SDS011;40184;53.362;5.216;2023-12-22T13:15:29;19.02;;;3.35;;
54271;SDS011;40184;53.362;5.216;2023-12-22T13:17:55;19.45;;;3.35;;
54271;SDS011;40184;53.362;5.216;2023-12-22T13:20:22;25.65;;;4.68;;
54271;SDS011;40184;53.362;5.216;2023-12-22T13:22:48;15.93;;;3.50;;
54271;SDS011;40184;53.362;5.216;2023-12-22T13:25:14;22.90;;;4.45;;
54271;SDS011;40184;53.362;5.216;2023-12-22T13:27:46;18.08;;;4.15;;
54271;SDS011;40184;53.362;5.216;2023-12-22T13:30:13;30.73;;;4.93;;
54271;SDS011;40184;53.362;5.216;2023-12-22T13:32:39;21.58;;;3.72;;
54271;SDS011;40184;53.362;5.216;2023-12-22T13:35:06;24.05;;;5.13;;
54271;SDS011;40184;53.362;5.216;2023-12-22T13:37:32;38.35;;;8.00;;
54271;SDS011;40184;53.362;5.216;2023-12-22T13:39:58;22.67;;;4.53;;
54271;SDS011;40184;53.362;5.216;2023-12-22T13:42:25;17.40;;;3.05;;
54271;SDS011;40184;53.362;5.216;2023-12-22T13:44:51;22.40;;;4.50;;
54271;SDS011;40184;53.362;5.216;2023-12-22T13:47:20;30.50;;;4.65;;
54271;SDS011;40184;53.362;5.216;2023-12-22T13:49:48;25.42;;;4.57;;
54271;SDS011;40184;53.362;5.216;2023-12-22T13:52:32;53.60;;;12.70;;
54271;SDS011;40184;53.362;5.216;2023-12-22T13:55:01;28.90;;;6.25;;
54271;SDS011;40184;53.362;5.216;2023-12-22T13:57:27;28.95;;;4.13;;
54271;SDS011;40184;53.362;5.216;2023-12-22T13:59:54;21.58;;;4.80;;
54271;SDS011;40184;53.362;5.216;2023-12-22T14:02:23;21.38;;;4.43;;
54271;SDS011;40184;53.362;5.216;2023-12-22T14:04:52;26.50;;;4.28;;
54271;SDS011;40184;53.362;5.216;2023-12-22T14:07:18;26.00;;;4.38;;
54271;SDS011;40184;53.362;5.216;2023-12-22T14:09:44;22.95;;;4.22;;
54271;SDS011;40184;53.362;5.216;2023-12-22T14:12:10;17.73;;;2.90;;
54271;SDS011;40184;53.362;5.216;2023-12-22T14:14:37;21.20;;;4.80;;
54271;SDS011;40184;53.362;5.216;2023-12-22T14:17:03;25.42;;;4.57;;
54271;SDS011;40184;53.362;5.216;2023-12-22T14:19:29;18.65;;;3.92;;
54271;SDS011;40184;53.362;5.216;2023-12-22T14:21:55;27.52;;;5.47;;
54271;SDS011;40184;53.362;5.216;2023-12-22T14:24:21;28.02;;;4.55;;
54271;SDS011;40184;53.362;5.216;2023-12-22T14:26:53;32.95;;;4.97;;
54271;SDS011;40184;53.362;5.216;2023-12-22T14:29:20;21.70;;;3.58;;
54271;SDS011;40184;53.362;5.216;2023-12-22T14:31:50;21.02;;;3.85;;
54271;SDS011;40184;53.362;5.216;2023-12-22T14:34:17;28.73;;;5.22;;
54271;SDS011;40184;53.362;5.216;2023-12-22T14:36:44;17.73;;;4.28;;
54271;SDS011;40184;53.362;5.216;2023-12-22T14:39:10;22.13;;;5.55;;